NFFA weather

Ba Airport
Western, Fiji

Public forecast

Using degrees Celsius for public forecast. Weather courtesy of forecast.io.

Closest aviation weather report (METAR) to Ba Airport

Closest report is Nadi International Airport, 19.0 nm (35.2 km) SW. Retrieved 2020/02/20 01:00 UTC (49 minutes ago):

NFFN 200100Z 29012KT 9999 FEW030 30/21 Q1005 NOSIG

Closest aviation forecast (TAF) to Ba Airport

Closest forecast is Nadi International Airport, 19.0 nm (35.2 km) SW. Retrieved 2020-02-20 00:00 UTC (2 hours ago):

TAF NFFN 192322Z 2000/2024 31010KT 9999 FEW030 SCT050 BECMG 2004/2006 13008KT BECMG 2022/2024 31008KT